Time;durP1;ratioP1;P1;durP2;ratioP2;P2;SDS_P1;SDS_P2;PMS_P1;PMS_P2;Temp;Humidity;BMP_temperature;BMP_pressure;BME280_temperature;BME280_humidity;BME280_pressure;Samples;Min_cycle;Max_cycle;Signal;HPM_P1;HPM_P2
2022/03/10 00:02:20;;;;;;;15.75;9.35;;;1.60;99.90;;;;;;5095255;28;20042;-75
2022/03/10 00:04:46;;;;;;;16.17;9.40;;;1.70;99.90;;;;;;5094004;28;20080;-75
2022/03/10 00:07:12;;;;;;;19.73;9.95;;;1.60;99.90;;;;;;5094704;28;20048;-75
2022/03/10 00:09:37;;;;;;;17.38;9.80;;;1.60;99.90;;;;;;5093438;28;20157;-76
2022/03/10 00:12:04;;;;;;;14.35;9.25;;;1.60;99.90;;;;;;5094553;28;20491;-76
2022/03/10 00:14:29;;;;;;;19.98;10.40;;;1.70;99.90;;;;;;5094598;28;20052;-74
2022/03/10 00:16:55;;;;;;;14.55;10.02;;;1.70;99.90;;;;;;5094535;28;20052;-75
2022/03/10 00:19:21;;;;;;;19.25;10.80;;;1.60;99.90;;;;;;5094454;28;20488;-76
2022/03/10 00:21:48;;;;;;;17.48;9.88;;;1.60;99.90;;;;;;5094457;28;20043;-76
2022/03/10 00:24:14;;;;;;;17.33;9.82;;;1.50;99.90;;;;;;5093442;28;20044;-76
2022/03/10 00:26:42;;;;;;;17.90;10.32;;;1.50;99.90;;;;;;5094506;28;20043;-75
2022/03/10 00:29:08;;;;;;;17.45;9.65;;;1.50;99.90;;;;;;5093914;28;20434;-75
2022/03/10 00:31:34;;;;;;;17.73;9.35;;;1.40;99.90;;;;;;5094236;28;20032;-75
2022/03/10 00:34:01;;;;;;;18.30;9.98;;;1.40;99.90;;;;;;5093310;28;20042;-75
2022/03/10 00:36:26;;;;;;;17.52;10.18;;;1.30;99.90;;;;;;5094234;28;20058;-76
2022/03/10 00:38:52;;;;;;;19.67;10.63;;;1.30;99.90;;;;;;5094180;28;20047;-75
2022/03/10 00:41:18;;;;;;;19.23;10.38;;;1.20;99.90;;;;;;5094447;28;20465;-76
2022/03/10 00:43:43;;;;;;;17.58;10.88;;;1.30;99.90;;;;;;5093072;28;20036;-75
2022/03/10 00:46:09;;;;;;;18.35;10.25;;;1.20;99.90;;;;;;5094067;28;20055;-75
2022/03/10 00:48:36;;;;;;;16.65;9.90;;;1.20;99.90;;;;;;5093996;28;20088;-75
2022/03/10 00:51:02;;;;;;;17.15;10.45;;;1.10;99.90;;;;;;5094190;28;20044;-75
2022/03/10 00:53:28;;;;;;;15.20;10.00;;;1.10;99.90;;;;;;5093039;28;20079;-75
2022/03/10 00:55:54;;;;;;;16.38;9.82;;;1.00;99.90;;;;;;5093992;28;20083;-76
2022/03/10 00:58:19;;;;;;;18.10;10.68;;;1.00;99.90;;;;;;5093783;28;20102;-75
2022/03/10 01:00:45;;;;;;;14.45;9.30;;;1.10;99.90;;;;;;5093625;28;20390;-76
2022/03/10 01:03:10;;;;;;;18.23;10.20;;;1.00;99.90;;;;;;5093957;28;20075;-75
2022/03/10 01:05:36;;;;;;;18.52;10.55;;;1.00;99.90;;;;;;5093849;28;20044;-75
2022/03/10 01:08:02;;;;;;;20.60;10.68;;;1.00;99.90;;;;;;5093746;28;20118;-74
2022/03/10 01:10:28;;;;;;;20.30;11.55;;;1.00;99.90;;;;;;5093881;28;20036;-75
2022/03/10 01:12:53;;;;;;;22.73;9.88;;;0.90;99.90;;;;;;5093482;28;20105;-76
2022/03/10 01:15:21;;;;;;;18.77;10.57;;;0.90;99.90;;;;;;5094855;28;20130;-76
2022/03/10 01:17:47;;;;;;;19.52;10.30;;;0.10;99.90;;;;;;5097997;28;20055;-75
2022/03/10 01:20:13;;;;;;;19.20;10.20;;;0.90;99.90;;;;;;5097957;28;20447;-75
2022/03/10 01:22:39;;;;;;;17.93;9.67;;;1.00;99.90;;;;;;5097887;28;20044;-75
2022/03/10 01:25:06;;;;;;;21.40;10.55;;;0.90;99.90;;;;;;5097809;28;20373;-75
2022/03/10 01:27:33;;;;;;;;;;;0.90;99.90;;;;;;5098062;28;20395;-75
2022/03/10 01:29:58;;;;;;;18.27;9.77;;;0.90;99.90;;;;;;5097713;28;19920;-76
2022/03/10 01:32:25;;;;;;;18.45;10.57;;;0.90;99.90;;;;;;5097685;28;20541;-76
2022/03/10 01:34:51;;;;;;;18.77;10.52;;;0.80;99.90;;;;;;5097648;28;20047;-76
2022/03/10 01:37:16;;;;;;;20.43;10.97;;;0.80;99.90;;;;;;5097721;28;20131;-74
2022/03/10 01:39:42;;;;;;;20.33;11.13;;;0.80;99.90;;;;;;5097711;28;20123;-76
2022/03/10 01:42:07;;;;;;;18.88;10.77;;;0.80;99.90;;;;;;5097492;28;20037;-75
2022/03/10 01:44:34;;;;;;;18.13;10.52;;;0.70;99.90;;;;;;5097599;28;20089;-75
2022/03/10 01:47:01;;;;;;;21.45;11.15;;;0.70;99.90;;;;;;5097430;28;20044;-74
2022/03/10 01:49:27;;;;;;;17.63;10.57;;;0.70;99.90;;;;;;5097453;28;20039;-76
2022/03/10 01:51:53;;;;;;;20.73;10.77;;;0.70;99.90;;;;;;5097246;28;20047;-76
2022/03/10 01:54:20;;;;;;;19.92;10.82;;;0.70;99.90;;;;;;5097321;28;20059;-75
2022/03/10 01:56:47;;;;;;;16.73;10.10;;;0.60;99.90;;;;;;5097203;28;20044;-75
2022/03/10 01:59:13;;;;;;;18.17;10.50;;;0.60;99.90;;;;;;5096231;28;20044;-76
2022/03/10 02:01:39;;;;;;;16.95;11.02;;;0.60;99.90;;;;;;5097188;28;20044;-75
2022/03/10 02:04:04;;;;;;;17.95;10.98;;;0.50;99.90;;;;;;5097059;28;20047;-75
2022/03/10 02:06:31;;;;;;;15.20;9.90;;;0.50;99.90;;;;;;5097018;28;20044;-74
2022/03/10 02:11:41;;;;;;;16.90;10.02;;;0.40;99.90;;;;;;5096649;28;20048;-76
2022/03/10 02:19:36;;;;;;;20.08;10.65;;;0.50;99.90;;;;;;5095899;28;20044;-76
2022/03/10 02:22:06;;;;;;;20.95;10.48;;;0.50;99.90;;;;;;5112741;28;20055;-76
2022/03/10 02:24:33;;;;;;;17.60;9.32;;;0.50;99.90;;;;;;5097066;28;20051;-76
2022/03/10 02:26:58;;;;;;;18.23;9.60;;;0.50;99.90;;;;;;5096360;28;20079;-75
2022/03/10 02:29:24;;;;;;;18.70;10.55;;;0.50;99.90;;;;;;5095659;28;20079;-76
2022/03/10 02:31:49;;;;;;;16.42;9.43;;;0.50;99.90;;;;;;5112529;28;20036;-75
2022/03/10 02:34:15;;;;;;;17.38;9.50;;;0.50;99.90;;;;;;5096622;28;20048;-76
2022/03/10 02:36:40;;;;;;;16.15;9.75;;;0.50;99.90;;;;;;5096315;28;20044;-76
2022/03/10 02:39:06;;;;;;;17.10;10.18;;;0.50;99.90;;;;;;5096190;28;20044;-76
2022/03/10 02:41:32;;;;;;;16.40;9.35;;;0.50;99.90;;;;;;5096076;28;20078;-75
2022/03/10 02:43:58;;;;;;;18.17;10.23;;;0.50;99.90;;;;;;5096616;28;20040;-75
2022/03/10 02:46:23;;;;;;;18.02;9.40;;;0.50;99.90;;;;;;5096288;28;20100;-75
2022/03/10 02:48:49;;;;;;;17.60;10.65;;;0.40;99.90;;;;;;5096170;28;20048;-74
2022/03/10 02:51:14;;;;;;;17.25;10.25;;;0.40;99.90;;;;;;5095766;28;20051;-75
2022/03/10 02:53:40;;;;;;;17.95;9.95;;;0.40;99.90;;;;;;5112206;28;20044;-74
2022/03/10 02:56:05;;;;;;;16.83;9.48;;;0.40;99.90;;;;;;5095962;28;20051;-76
2022/03/10 02:58:31;;;;;;;18.27;10.07;;;0.40;99.90;;;;;;5096097;28;20040;-76
2022/03/10 03:00:56;;;;;;;19.92;10.18;;;0.40;99.90;;;;;;5095968;28;20075;-75
2022/03/10 03:03:22;;;;;;;16.08;10.38;;;0.30;99.90;;;;;;5095940;28;20047;-75
2022/03/10 03:05:47;;;;;;;16.85;9.40;;;0.30;99.90;;;;;;5094720;28;20040;-76
2022/03/10 03:08:13;;;;;;;20.23;10.27;;;0.30;99.90;;;;;;5094971;28;20525;-75
2022/03/10 03:10:38;;;;;;;20.20;10.65;;;0.30;99.90;;;;;;5095942;28;20055;-76
2022/03/10 03:13:07;;;;;;;16.15;9.80;;;0.20;99.90;;;;;;5095490;28;20082;-74
2022/03/10 03:15:34;;;;;;;17.95;9.73;;;0.20;99.90;;;;;;5095892;28;20048;-76
2022/03/10 03:17:59;;;;;;;16.85;9.95;;;0.20;99.90;;;;;;5096505;28;20559;-75
2022/03/10 03:20:25;;;;;;;18.13;10.30;;;0.10;99.90;;;;;;5094472;28;20040;-75
2022/03/10 03:22:50;;;;;;;14.02;9.32;;;0.10;99.90;;;;;;5095583;28;20365;-76
2022/03/10 03:25:17;;;;;;;21.73;11.05;;;0.00;99.90;;;;;;5095547;28;20058;-75
2022/03/10 03:27:42;;;;;;;16.33;9.57;;;0.00;99.90;;;;;;5095703;28;20432;-75
2022/03/10 03:30:09;;;;;;;20.27;12.07;;;0.00;99.90;;;;;;5095407;28;20123;-75
2022/03/10 03:32:35;;;;;;;18.33;10.13;;;-0.10;99.90;;;;;;5095466;28;20472;-74
2022/03/10 03:35:01;;;;;;;17.70;10.30;;;-0.10;99.90;;;;;;5095370;28;20047;-75
2022/03/10 03:37:26;;;;;;;21.23;10.45;;;-0.20;99.90;;;;;;5095275;28;20079;-76
2022/03/10 03:39:52;;;;;;;18.13;10.80;;;-0.20;99.90;;;;;;5094055;28;20044;-76
2022/03/10 03:42:17;;;;;;;20.35;10.38;;;-0.20;99.90;;;;;;5095207;28;20442;-75
2022/03/10 03:44:43;;;;;;;23.00;10.98;;;-0.30;99.90;;;;;;5095126;28;20472;-75
2022/03/10 03:47:09;;;;;;;18.23;11.07;;;-0.20;99.90;;;;;;5095154;28;20436;-74
2022/03/10 03:49:34;;;;;;;21.15;10.43;;;-0.30;99.90;;;;;;5095071;28;20396;-75
2022/03/10 03:52:00;;;;;;;15.50;9.75;;;-0.30;99.90;;;;;;5110631;28;20050;-75
2022/03/10 03:54:25;;;;;;;20.80;10.88;;;-0.30;99.90;;;;;;5094918;28;20044;-76
2022/03/10 03:56:51;;;;;;;18.65;10.35;;;-0.30;99.90;;;;;;5094134;28;20487;-75
2022/03/10 03:59:16;;;;;;;18.70;10.82;;;-0.30;99.90;;;;;;5094858;28;20447;-76
2022/03/10 04:01:42;;;;;;;18.70;10.65;;;-0.30;99.90;;;;;;5095057;28;20040;-75
2022/03/10 04:04:07;;;;;;;22.88;10.65;;;-0.30;99.90;;;;;;5094863;28;20150;-75
2022/03/10 04:06:33;;;;;;;18.63;9.80;;;-0.30;99.90;;;;;;5094625;28;20119;-75
2022/03/10 04:08:59;;;;;;;20.25;10.18;;;-0.20;99.90;;;;;;5095115;28;20047;-74
2022/03/10 04:11:24;;;;;;;18.90;10.20;;;-0.10;99.90;;;;;;5094604;28;20044;-75
2022/03/10 04:13:50;;;;;;;17.85;10.07;;;-0.20;99.90;;;;;;5094593;28;20064;-74
2022/03/10 04:16:16;;;;;;;18.17;10.38;;;-0.10;99.90;;;;;;5093597;28;20040;-75
2022/03/10 04:18:41;;;;;;;13.50;9.55;;;-0.10;99.90;;;;;;5094487;28;20048;-74
2022/03/10 04:21:07;;;;;;;20.08;10.07;;;0.00;99.90;;;;;;5094364;28;20483;-74
2022/03/10 04:23:33;;;;;;;19.10;9.80;;;0.00;99.90;;;;;;5094181;28;20500;-74
2022/03/10 04:26:00;;;;;;;17.15;10.13;;;0.10;99.90;;;;;;5093554;28;20059;-74
2022/03/10 04:28:26;;;;;;;20.35;10.23;;;0.10;99.90;;;;;;5094370;28;20044;-73
2022/03/10 04:30:51;;;;;;;18.80;10.18;;;0.10;99.90;;;;;;5094436;28;20499;-74
2022/03/10 04:33:17;;;;;;;19.08;9.73;;;0.10;99.90;;;;;;5094472;28;20046;-75
2022/03/10 04:35:43;;;;;;;16.25;9.85;;;0.10;99.90;;;;;;5093902;28;20486;-74
2022/03/10 04:38:10;;;;;;;17.92;10.18;;;0.10;99.90;;;;;;5094212;28;20133;-75
2022/03/10 04:40:37;;;;;;;20.17;10.43;;;0.10;99.90;;;;;;5094714;28;20178;-75
2022/03/10 04:43:03;;;;;;;19.63;10.32;;;0.00;99.90;;;;;;5094377;28;20047;-75
2022/03/10 04:45:28;;;;;;;17.58;9.75;;;0.10;99.90;;;;;;5093941;28;20392;-74
2022/03/10 04:47:54;;;;;;;18.17;9.57;;;0.00;99.90;;;;;;5094084;28;20109;-75
2022/03/10 04:50:20;;;;;;;19.23;10.20;;;0.10;99.90;;;;;;5093631;28;20101;-75
2022/03/10 04:52:46;;;;;;;25.70;9.70;;;0.20;99.90;;;;;;5110672;28;20542;-75
2022/03/10 04:55:12;;;;;;;19.63;10.80;;;0.20;99.90;;;;;;5093916;28;20087;-74
2022/03/10 04:57:39;;;;;;;16.27;9.52;;;0.10;99.90;;;;;;5094083;28;20039;-75
2022/03/10 05:00:08;;;;;;;18.52;9.43;;;0.40;99.90;;;;;;5093935;28;20094;-75
2022/03/10 05:02:35;;;;;;;18.45;9.80;;;0.40;99.90;;;;;;5093839;28;20036;-75
2022/03/10 05:05:01;;;;;;;17.70;10.35;;;0.30;99.90;;;;;;5092852;28;20048;-74
2022/03/10 05:07:27;;;;;;;16.77;9.60;;;0.40;99.90;;;;;;5094028;28;20446;-75
2022/03/10 05:09:52;;;;;;;20.90;9.80;;;1.00;99.90;;;;;;5092234;28;20040;-74
2022/03/10 05:12:18;;;;;;;19.23;9.70;;;0.30;99.90;;;;;;5093610;28;20092;-75
2022/03/10 05:14:44;;;;;;;17.08;9.60;;;0.30;99.90;;;;;;5092324;28;20087;-74
2022/03/10 05:17:09;;;;;;;17.13;9.88;;;0.20;99.90;;;;;;5093682;28;20048;-75
2022/03/10 05:19:35;;;;;;;18.42;9.48;;;0.20;99.90;;;;;;5093676;28;20506;-75
2022/03/10 05:22:00;;;;;;;18.42;9.48;;;0.30;99.90;;;;;;5092943;28;20060;-75
2022/03/10 05:24:26;;;;;;;22.33;10.50;;;0.30;99.90;;;;;;5094035;28;20050;-73
2022/03/10 05:26:51;;;;;;;21.13;10.32;;;0.20;99.90;;;;;;5093623;28;20126;-72
2022/03/10 05:29:17;;;;;;;18.92;10.55;;;0.30;99.90;;;;;;5093514;28;20123;-73
2022/03/10 05:31:42;;;;;;;16.90;10.20;;;0.20;99.90;;;;;;5093575;28;20043;-73
2022/03/10 05:34:08;;;;;;;23.60;10.48;;;0.30;99.90;;;;;;5109310;28;20076;-72
2022/03/10 05:36:34;;;;;;;20.38;9.90;;;0.20;99.90;;;;;;5093498;28;20059;-73
2022/03/10 05:39:01;;;;;;;16.83;9.85;;;0.20;99.90;;;;;;5093471;28;20557;-72
2022/03/10 05:41:26;;;;;;;20.23;9.70;;;0.10;99.90;;;;;;5093425;28;20124;-75
2022/03/10 05:43:52;;;;;;;21.60;9.60;;;0.10;99.90;;;;;;5093345;28;20086;-73
2022/03/10 05:46:17;;;;;;;18.23;10.57;;;0.10;99.90;;;;;;5093487;28;20040;-73
2022/03/10 05:48:43;;;;;;;27.73;9.32;;;0.10;99.90;;;;;;5093183;28;20046;-73
2022/03/10 05:51:08;;;;;;;21.15;10.48;;;0.10;99.90;;;;;;5093058;28;20173;-73
2022/03/10 05:53:34;;;;;;;20.13;11.15;;;0.10;99.90;;;;;;5093165;28;20079;-74
2022/03/10 05:55:59;;;;;;;17.75;9.80;;;0.10;99.90;;;;;;5093183;28;20093;-73
2022/03/10 05:58:25;;;;;;;20.23;10.48;;;0.10;99.90;;;;;;5093191;28;20044;-73
2022/03/10 06:00:50;;;;;;;16.35;9.88;;;-0.70;99.90;;;;;;5109011;28;20044;-72
2022/03/10 06:03:16;;;;;;;17.10;10.50;;;0.20;99.90;;;;;;5094607;28;20122;-73
2022/03/10 06:05:41;;;;;;;17.00;9.95;;;0.20;99.90;;;;;;5096729;28;20097;-74
2022/03/10 06:08:08;;;;;;;18.10;9.95;;;0.20;99.90;;;;;;5096987;28;20047;-72
2022/03/10 06:10:33;;;;;;;20.27;10.63;;;0.20;99.90;;;;;;5096915;28;20449;-73
2022/03/10 06:12:59;;;;;;;16.73;10.18;;;0.30;99.90;;;;;;5096852;28;20131;-72
2022/03/10 06:15:24;;;;;;;16.92;10.25;;;0.40;99.90;;;;;;5113112;28;20434;-72
2022/03/10 06:17:50;;;;;;;18.02;11.23;;;0.30;99.90;;;;;;5096784;28;20503;-76
2022/03/10 06:20:15;;;;;;;21.67;11.43;;;0.30;99.90;;;;;;5096748;28;20541;-74
2022/03/10 06:22:41;;;;;;;22.65;12.38;;;0.30;99.90;;;;;;5112755;28;20036;-75
2022/03/10 06:25:09;;;;;;;26.27;13.68;;;0.40;99.90;;;;;;5096640;28;20088;-73
2022/03/10 06:27:34;;;;;;;23.83;12.30;;;0.30;99.90;;;;;;5095774;28;20044;-73
2022/03/10 06:30:00;;;;;;;26.40;13.57;;;0.40;99.90;;;;;;5096512;28;20059;-73
2022/03/10 06:32:25;;;;;;;35.67;15.13;;;0.40;99.90;;;;;;5096510;28;20048;-74
2022/03/10 06:34:53;;;;;;;29.10;14.60;;;0.40;99.90;;;;;;5096576;28;20128;-74
2022/03/10 06:37:19;;;;;;;28.23;14.52;;;0.40;99.90;;;;;;5095253;28;20047;-73
2022/03/10 06:39:44;;;;;;;28.10;14.53;;;0.50;99.90;;;;;;5096449;28;20085;-73
2022/03/10 06:42:10;;;;;;;32.90;15.45;;;0.60;99.90;;;;;;5112412;28;20132;-72
2022/03/10 06:44:36;;;;;;;25.00;13.27;;;0.70;99.90;;;;;;5096356;28;20043;-72
2022/03/10 06:47:06;;;;;;;26.80;12.93;;;0.80;99.90;;;;;;5096286;28;20044;-74
2022/03/10 06:49:32;;;;;;;24.63;11.80;;;0.90;99.90;;;;;;5096135;28;20101;-74
2022/03/10 06:51:58;;;;;;;21.37;12.13;;;1.00;99.90;;;;;;5096014;28;20036;-74
2022/03/10 06:54:24;;;;;;;25.13;11.10;;;1.10;99.90;;;;;;5095946;28;20278;-75
2022/03/10 06:56:49;;;;;;;19.83;10.50;;;1.20;99.90;;;;;;5095832;28;20051;-73
2022/03/10 06:59:15;;;;;;;18.30;9.95;;;1.30;99.90;;;;;;5096122;28;20565;-74
2022/03/10 07:01:41;;;;;;;18.35;10.48;;;1.50;99.90;;;;;;5096080;28;20040;-73
2022/03/10 07:04:06;;;;;;;21.58;10.13;;;1.50;99.90;;;;;;5095899;28;20056;-74
2022/03/10 07:06:32;;;;;;;19.90;10.52;;;1.60;99.90;;;;;;5095851;28;20036;-74
2022/03/10 07:08:57;;;;;;;18.27;10.50;;;1.60;99.90;;;;;;5095822;28;20392;-75
2022/03/10 07:11:25;;;;;;;24.83;10.18;;;1.60;99.90;;;;;;5095997;28;20110;-75
2022/03/10 07:13:51;;;;;;;20.38;10.52;;;1.70;99.90;;;;;;5095243;28;20158;-74
2022/03/10 07:16:16;;;;;;;22.30;10.63;;;1.80;99.90;;;;;;5095691;28;20151;-74
2022/03/10 07:18:42;;;;;;;21.70;11.13;;;1.90;99.90;;;;;;5095624;28;20472;-75
2022/03/10 07:21:07;;;;;;;19.48;11.30;;;2.00;99.90;;;;;;5095648;28;20548;-73
2022/03/10 07:23:33;;;;;;;27.42;12.98;;;2.10;99.90;;;;;;5095967;28;20044;-73
2022/03/10 07:26:00;;;;;;;23.60;13.32;;;2.20;99.90;;;;;;5096045;28;20377;-73
2022/03/10 07:28:26;;;;;;;26.55;12.88;;;2.20;99.90;;;;;;5095404;28;20039;-74
2022/03/10 07:30:51;;;;;;;23.67;13.55;;;2.30;99.90;;;;;;5095379;28;20051;-73
2022/03/10 07:33:17;;;;;;;24.33;13.85;;;2.40;99.90;;;;;;5093402;28;20048;-76
2022/03/10 07:35:43;;;;;;;25.67;12.60;;;2.50;99.90;;;;;;5094786;28;20106;-77
2022/03/10 07:38:10;;;;;;;23.70;11.82;;;2.70;99.90;;;;;;5095183;28;20040;-74
2022/03/10 07:40:36;;;;;;;24.75;12.55;;;2.80;99.90;;;;;;5094982;28;20044;-74
2022/03/10 07:43:03;;;;;;;19.83;11.77;;;2.90;99.90;;;;;;5094995;28;20048;-75
2022/03/10 07:45:29;;;;;;;19.48;12.02;;;3.00;99.90;;;;;;5094805;28;20070;-74
2022/03/10 07:47:55;;;;;;;20.55;10.82;;;3.10;99.90;;;;;;5094653;28;20503;-74
2022/03/10 07:50:23;;;;;;;19.65;11.30;;;3.20;99.90;;;;;;5094643;28;20085;-74
2022/03/10 07:52:48;;;;;;;16.70;11.02;;;3.30;99.90;;;;;;5094854;28;20059;-74
2022/03/10 07:55:14;;;;;;;16.55;10.45;;;3.40;99.90;;;;;;5093555;28;20035;-74
2022/03/10 07:57:41;;;;;;;22.23;11.10;;;3.60;99.90;;;;;;5094717;28;20092;-74
2022/03/10 08:00:07;;;;;;;18.88;11.10;;;3.70;99.90;;;;;;5094291;28;20044;-74
2022/03/10 08:02:33;;;;;;;21.40;12.00;;;3.80;99.90;;;;;;5094670;28;20040;-74
2022/03/10 08:04:59;;;;;;;17.92;10.38;;;3.90;99.90;;;;;;5094450;28;20044;-75
2022/03/10 08:07:24;;;;;;;20.17;10.32;;;4.10;99.90;;;;;;5094423;28;20055;-74
2022/03/10 08:09:50;;;;;;;19.08;10.90;;;4.20;99.90;;;;;;5094391;28;20122;-74
2022/03/10 08:12:15;;;;;;;18.17;10.48;;;4.30;99.90;;;;;;5094299;28;20131;-75
2022/03/10 08:14:41;;;;;;;20.30;10.52;;;4.40;99.90;;;;;;5093968;28;20095;-75
2022/03/10 08:17:07;;;;;;;15.70;10.18;;;4.50;99.90;;;;;;5094400;28;20052;-75
2022/03/10 08:19:33;;;;;;;18.00;10.43;;;4.60;99.90;;;;;;5109839;28;20102;-74
2022/03/10 08:21:59;;;;;;;19.73;11.00;;;4.70;99.90;;;;;;5094279;28;20046;-74
2022/03/10 08:24:28;;;;;;;17.02;10.57;;;4.80;99.90;;;;;;5093767;28;20051;-75
2022/03/10 08:26:54;;;;;;;18.08;11.18;;;4.90;99.90;;;;;;5093917;28;20069;-77
2022/03/10 08:29:19;;;;;;;16.95;10.73;;;5.00;99.90;;;;;;5094143;28;20105;-75
2022/03/10 08:31:45;;;;;;;16.00;10.10;;;5.20;99.90;;;;;;5093753;28;20040;-75
2022/03/10 08:34:10;;;;;;;25.85;11.27;;;5.20;99.90;;;;;;5093929;28;20113;-75
2022/03/10 08:36:36;;;;;;;19.02;11.02;;;5.30;99.90;;;;;;5094107;28;20507;-75
2022/03/10 08:39:02;;;;;;;17.23;10.40;;;5.40;99.90;;;;;;5092679;28;20446;-75
2022/03/10 08:41:27;;;;;;;15.43;9.93;;;5.40;99.90;;;;;;5093889;28;20051;-77
2022/03/10 08:43:53;;;;;;;17.73;10.73;;;5.50;99.90;;;;;;5093364;28;20412;-75
2022/03/10 08:46:18;;;;;;;14.77;10.07;;;5.60;99.90;;;;;;5092400;28;20055;-76
2022/03/10 08:48:45;;;;;;;16.77;10.90;;;5.70;99.90;;;;;;5093424;28;20051;-75
2022/03/10 08:51:11;;;;;;;18.42;10.63;;;5.90;99.90;;;;;;5093753;28;20545;-77
2022/03/10 08:53:36;;;;;;;16.00;10.27;;;6.00;99.90;;;;;;5109623;28;20160;-75
2022/03/10 08:56:03;;;;;;;16.23;10.73;;;6.10;99.90;;;;;;5093695;28;20099;-77
2022/03/10 08:58:29;;;;;;;;;;;6.20;99.90;;;;;;5093951;28;20048;-75
2022/03/10 09:00:55;;;;;;;16.52;10.32;;;6.40;99.90;;;;;;5091759;28;19926;-76
2022/03/10 09:03:20;;;;;;;17.73;9.68;;;6.50;99.90;;;;;;5092692;28;20079;-76
2022/03/10 09:05:46;;;;;;;17.02;10.10;;;6.60;99.90;;;;;;5093654;28;20048;-74
2022/03/10 09:08:12;;;;;;;18.02;10.45;;;6.80;99.90;;;;;;5092712;28;20419;-76
2022/03/10 09:10:38;;;;;;;14.55;9.85;;;6.90;99.90;;;;;;5093339;28;20518;-74
2022/03/10 09:13:04;;;;;;;15.05;9.93;;;7.10;99.90;;;;;;5093092;28;20092;-74
2022/03/10 09:15:31;;;;;;;16.35;9.88;;;7.20;99.90;;;;;;5093469;28;20040;-74
2022/03/10 09:17:57;;;;;;;15.65;9.07;;;7.30;99.90;;;;;;5093347;28;20131;-74
2022/03/10 09:20:22;;;;;;;16.23;9.60;;;7.40;99.90;;;;;;5092576;28;20178;-75
2022/03/10 09:22:48;;;;;;;17.35;10.00;;;7.70;99.90;;;;;;5093749;28;20498;-74
2022/03/10 09:25:14;;;;;;;15.27;9.82;;;7.60;99.90;;;;;;5093497;28;20447;-75
2022/03/10 09:27:40;;;;;;;17.80;9.30;;;7.70;99.90;;;;;;5093277;28;20076;-75
2022/03/10 09:30:08;;;;;;;16.33;9.43;;;7.90;99.90;;;;;;5093362;28;20048;-75
2022/03/10 09:32:39;;;;;;;20.02;10.10;;;8.00;99.90;;;;;;5093278;28;20388;-75
2022/03/10 09:35:07;;;;;;;16.88;10.38;;;8.10;99.90;;;;;;5093331;28;20097;-74
2022/03/10 09:37:33;;;;;;;14.25;9.57;;;8.20;99.90;;;;;;5094786;28;20043;-75
2022/03/10 09:39:59;;;;;;;13.90;8.73;;;8.30;99.90;;;;;;5096389;28;20452;-74
2022/03/10 09:42:28;;;;;;;16.05;10.00;;;8.40;99.90;;;;;;5097048;28;20092;-74
2022/03/10 09:44:58;;;;;;;18.60;9.63;;;8.60;99.90;;;;;;5097306;28;20043;-74
2022/03/10 09:47:24;;;;;;;17.92;9.88;;;8.70;99.90;;;;;;5096678;28;20173;-75
2022/03/10 09:49:51;;;;;;;16.93;9.60;;;8.70;99.90;;;;;;5096274;28;20047;-76
2022/03/10 09:52:17;;;;;;;15.75;10.18;;;8.80;99.90;;;;;;5097071;28;20314;-75
2022/03/10 09:54:43;;;;;;;17.05;9.25;;;9.00;99.70;;;;;;5095636;28;20169;-74
2022/03/10 09:57:09;;;;;;;16.38;9.50;;;9.10;99.10;;;;;;5097074;28;20130;-74
2022/03/10 09:59:50;;;;;;;14.97;9.63;;;9.20;99.90;;;;;;5097001;28;20110;-75
2022/03/10 10:02:16;;;;;;;18.02;9.70;;;9.30;99.40;;;;;;5096952;28;20433;-75
2022/03/10 10:04:43;;;;;;;17.98;9.45;;;9.50;99.70;;;;;;5097028;28;20399;-75
2022/03/10 10:07:10;;;;;;;14.48;9.48;;;9.60;99.00;;;;;;5096965;28;20403;-74
2022/03/10 10:09:46;;;;;;;;;;;9.80;99.10;;;;;;5095895;28;20084;-75
2022/03/10 10:12:14;;;;;;;13.60;9.40;;;9.90;97.80;;;;;;5096657;28;19923;-75
2022/03/10 10:14:45;;;;;;;13.00;8.82;;;10.10;97.10;;;;;;5096185;28;20052;-75
2022/03/10 10:17:11;;;;;;;13.90;9.27;;;10.20;96.20;;;;;;5095895;28;20048;-75
2022/03/10 10:19:39;;;;;;;14.27;8.77;;;10.30;96.10;;;;;;5096668;28;20051;-75
2022/03/10 10:22:19;;;;;;;13.77;9.10;;;10.40;94.90;;;;;;5096651;28;20076;-75
2022/03/10 10:24:59;;;;;;;13.23;9.40;;;10.50;94.40;;;;;;5095439;28;20044;-75
2022/03/10 10:27:32;;;;;;;14.98;9.30;;;10.60;94.00;;;;;;5078740;28;20063;-75
2022/03/10 10:30:00;;;;;;;16.30;9.98;;;10.60;94.00;;;;;;5095272;28;20044;-75
2022/03/10 10:32:33;;;;;;;14.70;9.43;;;10.70;95.00;;;;;;5096200;28;20036;-75
2022/03/10 10:35:08;;;;;;;16.00;9.45;;;10.80;94.20;;;;;;5096450;28;20162;-75
2022/03/10 10:37:36;;;;;;;14.60;9.20;;;11.00;92.90;;;;;;5094626;28;20044;-75
2022/03/10 10:40:03;;;;;;;14.88;9.10;;;11.00;92.00;;;;;;5096053;28;20040;-75
2022/03/10 10:42:31;;;;;;;14.90;9.32;;;11.00;93.00;;;;;;5096149;28;20498;-76
2022/03/10 10:45:01;;;;;;;16.55;9.82;;;11.10;92.90;;;;;;5096250;28;20048;-75
2022/03/10 10:47:29;;;;;;;13.73;9.68;;;11.20;91.40;;;;;;5094632;28;20044;-75
2022/03/10 10:50:00;;;;;;;14.63;10.05;;;11.20;92.00;;;;;;5095742;28;20080;-75
2022/03/10 10:52:39;;;;;;;18.08;11.07;;;11.40;92.50;;;;;;5096062;28;20074;-75
2022/03/10 10:55:13;;;;;;;15.55;10.30;;;11.50;91.30;;;;;;5095826;28;20123;-75
2022/03/10 10:57:39;;;;;;;18.60;10.32;;;11.60;91.10;;;;;;5095202;28;20090;-75
2022/03/10 11:00:13;;;;;;;15.67;10.97;;;11.60;90.70;;;;;;5095725;28;20040;-75
2022/03/10 11:02:42;;;;;;;17.35;10.25;;;11.70;91.00;;;;;;5095449;28;20126;-75
2022/03/10 11:05:11;;;;;;;14.80;10.07;;;11.70;90.50;;;;;;5095749;28;20052;-75
2022/03/10 11:07:38;;;;;;;15.82;10.90;;;11.90;90.70;;;;;;5095451;28;20059;-75
2022/03/10 11:10:07;;;;;;;17.45;10.75;;;12.00;90.90;;;;;;5095615;28;20044;-75
2022/03/10 11:12:34;;;;;;;16.52;10.48;;;12.00;89.20;;;;;;5095415;28;20048;-75
2022/03/10 11:15:00;;;;;;;20.02;10.70;;;11.90;88.30;;;;;;5095262;28;20059;-76
2022/03/10 11:17:27;;;;;;;16.25;10.85;;;12.00;89.20;;;;;;5095376;28;20048;-75
2022/03/10 11:19:57;;;;;;;18.60;10.88;;;12.10;89.90;;;;;;5095646;28;20040;-75
2022/03/10 11:22:32;;;;;;;16.52;10.23;;;12.20;88.90;;;;;;5094232;28;20052;-75
2022/03/10 11:25:42;;;;;;;16.88;10.32;;;12.40;89.70;;;;;;5094932;28;20484;-75
2022/03/10 11:28:11;;;;;;;18.13;10.45;;;12.40;87.00;;;;;;5088217;28;20062;-74
2022/03/10 11:30:36;;;;;;;17.88;10.43;;;12.50;87.40;;;;;;5095082;28;20050;-77
2022/03/10 11:33:20;;;;;;;16.45;11.10;;;12.60;84.80;;;;;;5095064;28;20044;-74
2022/03/10 11:35:48;;;;;;;16.33;10.32;;;12.70;86.90;;;;;;5094921;28;20051;-75
2022/03/10 11:38:16;;;;;;;20.40;10.52;;;12.90;85.50;;;;;;5094542;28;20484;-75
2022/03/10 11:40:52;;;;;;;15.55;9.90;;;12.90;83.30;;;;;;5095046;28;20044;-74
2022/03/10 11:43:35;;;;;;;14.80;10.20;;;13.00;83.20;;;;;;5094214;28;20136;-75
2022/03/10 11:46:21;;;;;;;18.65;10.98;;;13.10;82.40;;;;;;5095041;28;20044;-77
2022/03/10 11:49:05;;;;;;;16.33;10.80;;;13.30;83.50;;;;;;5094818;28;20047;-75
2022/03/10 11:51:42;;;;;;;16.98;10.65;;;13.40;80.80;;;;;;5094659;28;20040;-75
2022/03/10 11:54:08;;;;;;;18.15;10.57;;;13.40;80.00;;;;;;5094847;28;20499;-75
2022/03/10 11:56:43;;;;;;;17.17;10.40;;;13.40;81.40;;;;;;5093431;28;20484;-75
2022/03/10 11:59:34;;;;;;;16.63;11.10;;;13.50;80.50;;;;;;5094282;28;20074;-76
2022/03/10 12:02:01;;;;;;;18.05;11.05;;;13.60;78.10;;;;;;5076895;28;20059;-75
2022/03/10 12:04:40;;;;;;;18.65;10.50;;;13.60;80.50;;;;;;5094754;28;20125;-75
2022/03/10 12:07:14;;;;;;;20.02;11.60;;;13.70;78.40;;;;;;5094456;28;20047;-75
2022/03/10 12:09:41;;;;;;;18.55;10.93;;;13.80;80.50;;;;;;5094599;28;20051;-75
2022/03/10 12:12:26;;;;;;;18.65;11.93;;;14.00;79.50;;;;;;5094382;28;20048;-75
2022/03/10 12:14:56;;;;;;;18.30;11.38;;;14.00;76.60;;;;;;5094295;28;20087;-76
2022/03/10 12:17:46;;;;;;;19.42;12.07;;;14.00;78.60;;;;;;5094187;28;20059;-75
2022/03/10 12:20:26;;;;;;;17.63;11.30;;;14.20;79.80;;;;;;5094163;28;20048;-75
2022/03/10 12:23:03;;;;;;;21.98;11.55;;;14.30;78.60;;;;;;5094102;28;20531;-74
2022/03/10 12:25:30;;;;;;;18.30;11.95;;;14.30;76.90;;;;;;5110397;28;20047;-76
2022/03/10 12:27:57;;;;;;;42.75;12.80;;;14.30;78.20;;;;;;5094340;28;20047;-75
2022/03/10 12:30:27;;;;;;;17.48;11.73;;;14.40;78.20;;;;;;5092470;28;20495;-75
2022/03/10 12:32:54;;;;;;;19.73;12.05;;;14.60;80.50;;;;;;5094128;28;20044;-76
2022/03/10 12:35:29;;;;;;;20.40;11.68;;;14.60;78.90;;;;;;5093987;28;20130;-74
2022/03/10 12:37:55;;;;;;;17.98;12.18;;;14.70;78.40;;;;;;5094098;28;20051;-75
2022/03/10 12:40:23;;;;;;;16.23;11.38;;;14.70;77.90;;;;;;5093091;28;20488;-76
2022/03/10 12:42:49;;;;;;;17.55;11.80;;;14.70;76.60;;;;;;5092578;28;20395;-76
2022/03/10 12:45:19;;;;;;;24.57;13.90;;;14.70;77.60;;;;;;5094045;28;20043;-77
2022/03/10 12:47:53;;;;;;;19.00;12.13;;;14.70;77.20;;;;;;5094029;28;20304;-76